sensor_id;sensor_type;location;lat;lon;timestamp;temperature;humidity
64987;DHT22;67903;52.108;9.358;2023-04-24T00:02:36;12.00;75.90
64987;DHT22;67903;52.108;9.358;2023-04-24T00:05:27;12.00;75.90
64987;DHT22;67903;52.108;9.358;2023-04-24T00:08:14;11.90;76.10
64987;DHT22;67903;52.108;9.358;2023-04-24T00:11:01;11.90;76.30
64987;DHT22;67903;52.108;9.358;2023-04-24T00:13:48;11.90;74.70
64987;DHT22;67903;52.108;9.358;2023-04-24T00:16:35;11.90;74.10
64987;DHT22;67903;52.108;9.358;2023-04-24T00:19:22;11.90;73.30
64987;DHT22;67903;52.108;9.358;2023-04-24T00:22:09;11.90;73.50
64987;DHT22;67903;52.108;9.358;2023-04-24T00:24:57;11.80;72.60
64987;DHT22;67903;52.108;9.358;2023-04-24T00:27:44;11.80;72.20
64987;DHT22;67903;52.108;9.358;2023-04-24T00:30:32;11.70;71.20
64987;DHT22;67903;52.108;9.358;2023-04-24T00:33:19;11.90;68.70
64987;DHT22;67903;52.108;9.358;2023-04-24T00:36:06;11.80;69.40
64987;DHT22;67903;52.108;9.358;2023-04-24T00:38:54;11.70;70.50
64987;DHT22;67903;52.108;9.358;2023-04-24T00:41:42;11.60;71.90
64987;DHT22;67903;52.108;9.358;2023-04-24T00:44:29;11.50;72.10
64987;DHT22;67903;52.108;9.358;2023-04-24T00:47:16;11.40;72.90
64987;DHT22;67903;52.108;9.358;2023-04-24T00:50:06;11.30;73.10
64987;DHT22;67903;52.108;9.358;2023-04-24T00:52:54;11.10;73.40
64987;DHT22;67903;52.108;9.358;2023-04-24T00:55:42;11.10;74.40
64987;DHT22;67903;52.108;9.358;2023-04-24T00:58:29;11.00;74.50
64987;DHT22;67903;52.108;9.358;2023-04-24T01:01:20;10.90;75.00
64987;DHT22;67903;52.108;9.358;2023-04-24T01:04:11;10.90;75.30
64987;DHT22;67903;52.108;9.358;2023-04-24T01:06:59;10.80;75.40
64987;DHT22;67903;52.108;9.358;2023-04-24T01:09:48;10.70;76.50
64987;DHT22;67903;52.108;9.358;2023-04-24T01:12:38;10.70;76.00
64987;DHT22;67903;52.108;9.358;2023-04-24T01:15:25;10.70;75.60
64987;DHT22;67903;52.108;9.358;2023-04-24T01:18:13;10.60;76.70
64987;DHT22;67903;52.108;9.358;2023-04-24T01:21:03;10.60;76.50
64987;DHT22;67903;52.108;9.358;2023-04-24T01:23:51;10.50;76.40
64987;DHT22;67903;52.108;9.358;2023-04-24T01:26:38;10.50;76.60
64987;DHT22;67903;52.108;9.358;2023-04-24T01:29:25;10.40;78.00
64987;DHT22;67903;52.108;9.358;2023-04-24T01:32:12;10.40;77.90
64987;DHT22;67903;52.108;9.358;2023-04-24T01:35:00;10.40;77.00
64987;DHT22;67903;52.108;9.358;2023-04-24T01:37:47;10.30;77.60
64987;DHT22;67903;52.108;9.358;2023-04-24T01:40:34;10.30;76.90
64987;DHT22;67903;52.108;9.358;2023-04-24T01:43:21;10.30;77.50
64987;DHT22;67903;52.108;9.358;2023-04-24T01:46:09;10.30;78.20
64987;DHT22;67903;52.108;9.358;2023-04-24T01:48:59;10.20;77.70
64987;DHT22;67903;52.108;9.358;2023-04-24T01:51:47;10.20;77.70
64987;DHT22;67903;52.108;9.358;2023-04-24T01:54:34;10.30;78.00
64987;DHT22;67903;52.108;9.358;2023-04-24T01:57:22;10.30;78.40
64987;DHT22;67903;52.108;9.358;2023-04-24T02:00:09;10.40;78.40
64987;DHT22;67903;52.108;9.358;2023-04-24T02:03:01;10.30;78.50
64987;DHT22;67903;52.108;9.358;2023-04-24T02:05:49;10.30;78.50
64987;DHT22;67903;52.108;9.358;2023-04-24T02:08:36;10.30;77.70
64987;DHT22;67903;52.108;9.358;2023-04-24T02:11:23;10.30;77.90
64987;DHT22;67903;52.108;9.358;2023-04-24T02:14:11;10.30;78.50
64987;DHT22;67903;52.108;9.358;2023-04-24T02:16:59;10.30;78.30
64987;DHT22;67903;52.108;9.358;2023-04-24T02:19:48;10.20;77.70
64987;DHT22;67903;52.108;9.358;2023-04-24T02:22:36;10.30;76.90
64987;DHT22;67903;52.108;9.358;2023-04-24T02:25:23;10.30;76.50
64987;DHT22;67903;52.108;9.358;2023-04-24T02:28:13;10.30;76.60
64987;DHT22;67903;52.108;9.358;2023-04-24T02:31:00;10.30;76.40
64987;DHT22;67903;52.108;9.358;2023-04-24T02:33:47;10.20;75.90
64987;DHT22;67903;52.108;9.358;2023-04-24T02:36:34;10.30;76.20
64987;DHT22;67903;52.108;9.358;2023-04-24T02:39:21;10.30;76.10
64987;DHT22;67903;52.108;9.358;2023-04-24T02:42:08;10.40;74.70
64987;DHT22;67903;52.108;9.358;2023-04-24T02:44:56;10.50;74.20
64987;DHT22;67903;52.108;9.358;2023-04-24T02:47:43;10.60;74.00
64987;DHT22;67903;52.108;9.358;2023-04-24T02:50:30;10.60;73.80
64987;DHT22;67903;52.108;9.358;2023-04-24T02:53:18;10.70;73.30
64987;DHT22;67903;52.108;9.358;2023-04-24T02:56:06;10.80;72.90
64987;DHT22;67903;52.108;9.358;2023-04-24T02:58:53;10.80;72.40
64987;DHT22;67903;52.108;9.358;2023-04-24T03:01:40;10.80;72.70
64987;DHT22;67903;52.108;9.358;2023-04-24T03:04:27;10.90;72.90
64987;DHT22;67903;52.108;9.358;2023-04-24T03:07:14;10.80;73.50
64987;DHT22;67903;52.108;9.358;2023-04-24T03:10:03;10.80;73.60
64987;DHT22;67903;52.108;9.358;2023-04-24T03:12:51;10.70;73.90
64987;DHT22;67903;52.108;9.358;2023-04-24T03:15:38;10.60;74.30
64987;DHT22;67903;52.108;9.358;2023-04-24T03:18:25;10.50;74.70
64987;DHT22;67903;52.108;9.358;2023-04-24T03:21:12;10.50;75.70
64987;DHT22;67903;52.108;9.358;2023-04-24T03:24:00;10.40;75.50
64987;DHT22;67903;52.108;9.358;2023-04-24T03:26:48;10.40;75.20
64987;DHT22;67903;52.108;9.358;2023-04-24T03:29:48;10.40;75.40
64987;DHT22;67903;52.108;9.358;2023-04-24T03:32:36;10.30;75.70
64987;DHT22;67903;52.108;9.358;2023-04-24T03:35:24;10.20;75.80
64987;DHT22;67903;52.108;9.358;2023-04-24T03:38:12;10.10;75.80
64987;DHT22;67903;52.108;9.358;2023-04-24T03:41:02;10.10;76.60
64987;DHT22;67903;52.108;9.358;2023-04-24T03:43:57;10.10;75.70
64987;DHT22;67903;52.108;9.358;2023-04-24T03:46:45;10.10;75.90
64987;DHT22;67903;52.108;9.358;2023-04-24T03:49:32;10.10;76.40
64987;DHT22;67903;52.108;9.358;2023-04-24T03:52:19;10.10;76.60
64987;DHT22;67903;52.108;9.358;2023-04-24T03:55:07;10.20;75.90
64987;DHT22;67903;52.108;9.358;2023-04-24T03:58:01;10.20;75.70
64987;DHT22;67903;52.108;9.358;2023-04-24T04:00:48;10.40;74.80
64987;DHT22;67903;52.108;9.358;2023-04-24T04:03:56;10.30;74.80
64987;DHT22;67903;52.108;9.358;2023-04-24T04:06:46;10.20;75.10
64987;DHT22;67903;52.108;9.358;2023-04-24T04:09:33;10.10;75.50
64987;DHT22;67903;52.108;9.358;2023-04-24T04:12:20;10.00;75.80
64987;DHT22;67903;52.108;9.358;2023-04-24T04:15:08;10.00;75.70
64987;DHT22;67903;52.108;9.358;2023-04-24T04:17:55;10.00;75.80
64987;DHT22;67903;52.108;9.358;2023-04-24T04:20:43;10.00;75.80
64987;DHT22;67903;52.108;9.358;2023-04-24T04:23:32;10.00;76.20
64987;DHT22;67903;52.108;9.358;2023-04-24T04:26:28;10.00;76.20
64987;DHT22;67903;52.108;9.358;2023-04-24T04:29:23;10.10;75.30
64987;DHT22;67903;52.108;9.358;2023-04-24T04:32:11;10.20;75.20
64987;DHT22;67903;52.108;9.358;2023-04-24T04:34:59;10.20;75.50
64987;DHT22;67903;52.108;9.358;2023-04-24T04:37:51;10.30;75.50
64987;DHT22;67903;52.108;9.358;2023-04-24T04:40:58;10.30;75.70
64987;DHT22;67903;52.108;9.358;2023-04-24T04:43:49;10.30;75.40
64987;DHT22;67903;52.108;9.358;2023-04-24T04:46:37;10.30;75.40
64987;DHT22;67903;52.108;9.358;2023-04-24T04:49:34;10.30;75.40
64987;DHT22;67903;52.108;9.358;2023-04-24T04:52:23;10.40;75.00
64987;DHT22;67903;52.108;9.358;2023-04-24T04:55:22;10.60;75.10
64987;DHT22;67903;52.108;9.358;2023-04-24T04:58:29;10.60;74.80
64987;DHT22;67903;52.108;9.358;2023-04-24T05:01:19;10.70;74.00
64987;DHT22;67903;52.108;9.358;2023-04-24T05:04:07;10.80;73.60
64987;DHT22;67903;52.108;9.358;2023-04-24T05:06:56;11.10;72.30
64987;DHT22;67903;52.108;9.358;2023-04-24T05:09:45;11.20;71.20
64987;DHT22;67903;52.108;9.358;2023-04-24T05:12:33;11.10;71.70
64987;DHT22;67903;52.108;9.358;2023-04-24T05:15:22;11.10;72.10
64987;DHT22;67903;52.108;9.358;2023-04-24T05:18:09;11.10;72.30
64987;DHT22;67903;52.108;9.358;2023-04-24T05:20:57;11.10;72.50
64987;DHT22;67903;52.108;9.358;2023-04-24T05:23:44;11.00;72.20
64987;DHT22;67903;52.108;9.358;2023-04-24T05:26:36;10.80;71.60
64987;DHT22;67903;52.108;9.358;2023-04-24T05:29:24;10.60;72.70
64987;DHT22;67903;52.108;9.358;2023-04-24T05:32:13;10.40;73.80
64987;DHT22;67903;52.108;9.358;2023-04-24T05:35:00;10.20;74.70
64987;DHT22;67903;52.108;9.358;2023-04-24T05:37:47;10.20;76.00
64987;DHT22;67903;52.108;9.358;2023-04-24T05:40:36;10.20;75.50
64987;DHT22;67903;52.108;9.358;2023-04-24T05:43:23;10.20;75.00
64987;DHT22;67903;52.108;9.358;2023-04-24T05:46:11;10.30;74.80
64987;DHT22;67903;52.108;9.358;2023-04-24T05:48:59;10.40;73.40
64987;DHT22;67903;52.108;9.358;2023-04-24T05:51:46;10.50;72.90
64987;DHT22;67903;52.108;9.358;2023-04-24T05:54:33;10.50;73.20
64987;DHT22;67903;52.108;9.358;2023-04-24T05:57:21;10.70;71.30
64987;DHT22;67903;52.108;9.358;2023-04-24T06:00:12;10.80;70.60
64987;DHT22;67903;52.108;9.358;2023-04-24T06:03:04;11.00;69.70
64987;DHT22;67903;52.108;9.358;2023-04-24T06:05:51;11.00;69.10
64987;DHT22;67903;52.108;9.358;2023-04-24T06:08:40;11.10;69.20
64987;DHT22;67903;52.108;9.358;2023-04-24T06:11:29;11.10;68.90
64987;DHT22;67903;52.108;9.358;2023-04-24T06:14:16;11.10;69.60
64987;DHT22;67903;52.108;9.358;2023-04-24T06:17:22;11.00;69.80
64987;DHT22;67903;52.108;9.358;2023-04-24T06:20:10;11.10;69.80
64987;DHT22;67903;52.108;9.358;2023-04-24T06:22:58;10.90;70.90
64987;DHT22;67903;52.108;9.358;2023-04-24T06:25:45;10.60;72.70
64987;DHT22;67903;52.108;9.358;2023-04-24T06:28:32;10.30;73.10
64987;DHT22;67903;52.108;9.358;2023-04-24T06:31:20;10.30;73.60
64987;DHT22;67903;52.108;9.358;2023-04-24T06:34:07;10.30;73.60
64987;DHT22;67903;52.108;9.358;2023-04-24T06:36:54;10.40;72.50
64987;DHT22;67903;52.108;9.358;2023-04-24T06:39:42;10.50;71.40
64987;DHT22;67903;52.108;9.358;2023-04-24T06:42:29;10.50;71.30
64987;DHT22;67903;52.108;9.358;2023-04-24T06:45:17;10.40;69.90
64987;DHT22;67903;52.108;9.358;2023-04-24T06:48:04;10.30;69.40
64987;DHT22;67903;52.108;9.358;2023-04-24T06:50:52;10.30;69.50
64987;DHT22;67903;52.108;9.358;2023-04-24T06:53:39;10.40;67.80
64987;DHT22;67903;52.108;9.358;2023-04-24T06:56:26;10.30;67.90
64987;DHT22;67903;52.108;9.358;2023-04-24T06:59:13;10.40;68.00
64987;DHT22;67903;52.108;9.358;2023-04-24T07:02:00;10.70;66.80
64987;DHT22;67903;52.108;9.358;2023-04-24T07:04:47;10.90;66.70
64987;DHT22;67903;52.108;9.358;2023-04-24T07:07:34;11.10;66.20
64987;DHT22;67903;52.108;9.358;2023-04-24T07:10:24;11.20;66.20
64987;DHT22;67903;52.108;9.358;2023-04-24T07:13:13;11.20;67.20
64987;DHT22;67903;52.108;9.358;2023-04-24T07:16:01;11.40;66.80
64987;DHT22;67903;52.108;9.358;2023-04-24T07:18:48;11.50;64.70
64987;DHT22;67903;52.108;9.358;2023-04-24T07:21:35;11.40;64.10
64987;DHT22;67903;52.108;9.358;2023-04-24T07:24:22;11.30;64.20
64987;DHT22;67903;52.108;9.358;2023-04-24T07:27:12;11.30;63.90
64987;DHT22;67903;52.108;9.358;2023-04-24T07:29:59;11.30;63.00
64987;DHT22;67903;52.108;9.358;2023-04-24T07:32:46;11.20;63.30
64987;DHT22;67903;52.108;9.358;2023-04-24T07:35:33;11.30;63.00
64987;DHT22;67903;52.108;9.358;2023-04-24T07:38:21;11.30;63.70
64987;DHT22;67903;52.108;9.358;2023-04-24T07:41:09;11.30;63.70
64987;DHT22;67903;52.108;9.358;2023-04-24T07:43:56;11.30;63.80
64987;DHT22;67903;52.108;9.358;2023-04-24T07:46:43;11.30;62.70
64987;DHT22;67903;52.108;9.358;2023-04-24T07:49:30;11.30;62.90
64987;DHT22;67903;52.108;9.358;2023-04-24T07:52:17;11.10;62.90
64987;DHT22;67903;52.108;9.358;2023-04-24T07:55:04;11.10;63.20
64987;DHT22;67903;52.108;9.358;2023-04-24T07:57:52;11.20;63.50
64987;DHT22;67903;52.108;9.358;2023-04-24T08:00:39;11.20;62.70
64987;DHT22;67903;52.108;9.358;2023-04-24T08:03:26;11.40;62.70
64987;DHT22;67903;52.108;9.358;2023-04-24T08:06:13;11.50;62.20
64987;DHT22;67903;52.108;9.358;2023-04-24T08:09:01;11.70;61.50
64987;DHT22;67903;52.108;9.358;2023-04-24T08:11:48;11.80;60.90
64987;DHT22;67903;52.108;9.358;2023-04-24T08:14:35;11.90;60.70
64987;DHT22;67903;52.108;9.358;2023-04-24T08:17:22;11.90;59.70
64987;DHT22;67903;52.108;9.358;2023-04-24T08:20:10;11.90;59.70
64987;DHT22;67903;52.108;9.358;2023-04-24T08:23:00;11.70;59.80
64987;DHT22;67903;52.108;9.358;2023-04-24T08:25:47;11.70;60.20
64987;DHT22;67903;52.108;9.358;2023-04-24T08:28:35;11.70;60.30
64987;DHT22;67903;52.108;9.358;2023-04-24T08:31:22;11.50;60.30
64987;DHT22;67903;52.108;9.358;2023-04-24T08:34:11;11.70;59.90
64987;DHT22;67903;52.108;9.358;2023-04-24T08:36:58;11.70;60.20
64987;DHT22;67903;52.108;9.358;2023-04-24T08:39:45;11.90;59.80
64987;DHT22;67903;52.108;9.358;2023-04-24T08:42:33;11.90;59.90
64987;DHT22;67903;52.108;9.358;2023-04-24T08:45:21;11.90;59.80
64987;DHT22;67903;52.108;9.358;2023-04-24T08:48:09;11.70;60.20
64987;DHT22;67903;52.108;9.358;2023-04-24T08:51:08;11.80;59.80
64987;DHT22;67903;52.108;9.358;2023-04-24T08:53:55;11.70;60.10
64987;DHT22;67903;52.108;9.358;2023-04-24T08:56:44;11.60;60.40
64987;DHT22;67903;52.108;9.358;2023-04-24T08:59:32;11.50;61.10
64987;DHT22;67903;52.108;9.358;2023-04-24T09:02:20;11.50;60.90
64987;DHT22;67903;52.108;9.358;2023-04-24T09:05:08;11.50;61.30
64987;DHT22;67903;52.108;9.358;2023-04-24T09:07:57;11.70;61.30
64987;DHT22;67903;52.108;9.358;2023-04-24T09:10:44;11.70;60.50
64987;DHT22;67903;52.108;9.358;2023-04-24T09:13:32;11.70;60.40
64987;DHT22;67903;52.108;9.358;2023-04-24T09:16:20;11.90;61.20
64987;DHT22;67903;52.108;9.358;2023-04-24T09:19:07;12.00;60.70
64987;DHT22;67903;52.108;9.358;2023-04-24T09:21:54;12.00;59.50
64987;DHT22;67903;52.108;9.358;2023-04-24T09:24:41;12.10;59.90
64987;DHT22;67903;52.108;9.358;2023-04-24T09:27:28;12.20;59.00
64987;DHT22;67903;52.108;9.358;2023-04-24T09:30:21;12.20;58.60
64987;DHT22;67903;52.108;9.358;2023-04-24T09:33:15;12.40;58.70
64987;DHT22;67903;52.108;9.358;2023-04-24T09:36:03;12.30;58.10
64987;DHT22;67903;52.108;9.358;2023-04-24T09:38:57;12.40;58.30
64987;DHT22;67903;52.108;9.358;2023-04-24T09:44:34;12.70;58.00
64987;DHT22;67903;52.108;9.358;2023-04-24T09:47:21;12.70;58.00
64987;DHT22;67903;52.108;9.358;2023-04-24T09:50:13;12.50;57.90
64987;DHT22;67903;52.108;9.358;2023-04-24T09:53:05;12.50;58.50
64987;DHT22;67903;52.108;9.358;2023-04-24T09:55:56;12.50;58.00
64987;DHT22;67903;52.108;9.358;2023-04-24T09:58:43;12.20;59.20
64987;DHT22;67903;52.108;9.358;2023-04-24T10:01:31;12.50;58.90
64987;DHT22;67903;52.108;9.358;2023-04-24T10:04:23;12.50;58.50
64987;DHT22;67903;52.108;9.358;2023-04-24T10:07:11;12.30;58.60
64987;DHT22;67903;52.108;9.358;2023-04-24T10:09:58;12.20;59.30
64987;DHT22;67903;52.108;9.358;2023-04-24T10:12:46;12.20;59.20
64987;DHT22;67903;52.108;9.358;2023-04-24T10:15:34;12.10;60.00
64987;DHT22;67903;52.108;9.358;2023-04-24T10:18:22;12.20;59.50
64987;DHT22;67903;52.108;9.358;2023-04-24T10:21:11;12.30;59.40
64987;DHT22;67903;52.108;9.358;2023-04-24T10:23:59;12.20;59.40
64987;DHT22;67903;52.108;9.358;2023-04-24T10:26:47;12.10;60.20
64987;DHT22;67903;52.108;9.358;2023-04-24T10:29:37;12.10;61.10
64987;DHT22;67903;52.108;9.358;2023-04-24T10:32:25;12.20;60.40
64987;DHT22;67903;52.108;9.358;2023-04-24T10:35:15;12.00;61.20
64987;DHT22;67903;52.108;9.358;2023-04-24T10:38:07;11.70;62.80
64987;DHT22;67903;52.108;9.358;2023-04-24T10:41:09;11.50;62.60
64987;DHT22;67903;52.108;9.358;2023-04-24T10:44:14;11.50;63.00
64987;DHT22;67903;52.108;9.358;2023-04-24T10:47:01;11.90;61.00
64987;DHT22;67903;52.108;9.358;2023-04-24T10:49:50;12.20;60.90
64987;DHT22;67903;52.108;9.358;2023-04-24T10:52:44;12.70;58.80
64987;DHT22;67903;52.108;9.358;2023-04-24T10:55:59;13.10;57.70
64987;DHT22;67903;52.108;9.358;2023-04-24T10:58:53;13.30;57.30
64987;DHT22;67903;52.108;9.358;2023-04-24T11:01:40;13.40;57.00
64987;DHT22;67903;52.108;9.358;2023-04-24T11:04:39;13.30;57.10
64987;DHT22;67903;52.108;9.358;2023-04-24T11:07:26;13.50;56.80
64987;DHT22;67903;52.108;9.358;2023-04-24T11:10:25;13.40;57.00
64987;DHT22;67903;52.108;9.358;2023-04-24T11:13:21;13.60;56.70
64987;DHT22;67903;52.108;9.358;2023-04-24T11:16:13;14.00;56.10
64987;DHT22;67903;52.108;9.358;2023-04-24T11:21:57;13.30;56.80
64987;DHT22;67903;52.108;9.358;2023-04-24T11:27:42;13.00;57.80
64987;DHT22;67903;52.108;9.358;2023-04-24T11:30:31;12.50;58.80
64987;DHT22;67903;52.108;9.358;2023-04-24T11:33:20;12.30;62.00
64987;DHT22;67903;52.108;9.358;2023-04-24T11:36:08;11.90;63.30
64987;DHT22;67903;52.108;9.358;2023-04-24T11:38:56;11.90;64.00
64987;DHT22;67903;52.108;9.358;2023-04-24T11:41:44;11.70;61.50
64987;DHT22;67903;52.108;9.358;2023-04-24T11:44:31;11.50;62.30
64987;DHT22;67903;52.108;9.358;2023-04-24T11:47:20;11.40;61.00
64987;DHT22;67903;52.108;9.358;2023-04-24T11:50:12;11.40;62.10
64987;DHT22;67903;52.108;9.358;2023-04-24T11:53:00;11.50;61.10
64987;DHT22;67903;52.108;9.358;2023-04-24T11:55:48;11.30;61.90
64987;DHT22;67903;52.108;9.358;2023-04-24T11:58:38;11.20;62.20
64987;DHT22;67903;52.108;9.358;2023-04-24T12:01:26;11.10;62.10
64987;DHT22;67903;52.108;9.358;2023-04-24T12:04:14;10.90;62.90
64987;DHT22;67903;52.108;9.358;2023-04-24T12:07:02;10.90;63.40
64987;DHT22;67903;52.108;9.358;2023-04-24T12:09:56;11.30;63.40
64987;DHT22;67903;52.108;9.358;2023-04-24T12:12:45;11.40;63.20
64987;DHT22;67903;52.108;9.358;2023-04-24T12:15:33;11.60;62.60
64987;DHT22;67903;52.108;9.358;2023-04-24T12:18:24;11.60;62.50
64987;DHT22;67903;52.108;9.358;2023-04-24T12:21:22;11.90;62.00
64987;DHT22;67903;52.108;9.358;2023-04-24T12:24:09;11.90;62.00
64987;DHT22;67903;52.108;9.358;2023-04-24T12:26:57;11.60;62.80
64987;DHT22;67903;52.108;9.358;2023-04-24T12:29:57;11.00;64.40
64987;DHT22;67903;52.108;9.358;2023-04-24T12:32:49;10.60;65.60
64987;DHT22;67903;52.108;9.358;2023-04-24T12:35:37;10.80;66.00
64987;DHT22;67903;52.108;9.358;2023-04-24T12:38:28;11.10;64.70
64987;DHT22;67903;52.108;9.358;2023-04-24T12:41:26;11.10;64.40
64987;DHT22;67903;52.108;9.358;2023-04-24T12:44:17;11.10;64.80
64987;DHT22;67903;52.108;9.358;2023-04-24T12:47:05;10.90;65.70
64987;DHT22;67903;52.108;9.358;2023-04-24T12:49:52;10.70;67.10
64987;DHT22;67903;52.108;9.358;2023-04-24T12:52:40;10.30;67.40
64987;DHT22;67903;52.108;9.358;2023-04-24T12:55:27;10.20;68.20
64987;DHT22;67903;52.108;9.358;2023-04-24T12:58:14;10.10;68.60
64987;DHT22;67903;52.108;9.358;2023-04-24T13:01:02;10.10;68.40
64987;DHT22;67903;52.108;9.358;2023-04-24T13:03:49;10.10;67.50
64987;DHT22;67903;52.108;9.358;2023-04-24T13:06:36;10.00;68.70
64987;DHT22;67903;52.108;9.358;2023-04-24T13:09:23;10.00;70.20
64987;DHT22;67903;52.108;9.358;2023-04-24T13:12:11;10.00;70.00
64987;DHT22;67903;52.108;9.358;2023-04-24T13:14:59;9.70;72.40
64987;DHT22;67903;52.108;9.358;2023-04-24T13:17:46;9.40;75.70
64987;DHT22;67903;52.108;9.358;2023-04-24T13:20:33;9.00;78.50
64987;DHT22;67903;52.108;9.358;2023-04-24T13:23:22;8.80;79.70
64987;DHT22;67903;52.108;9.358;2023-04-24T13:26:09;8.80;76.70
64987;DHT22;67903;52.108;9.358;2023-04-24T13:28:56;8.70;80.60
64987;DHT22;67903;52.108;9.358;2023-04-24T13:31:43;8.50;83.20
64987;DHT22;67903;52.108;9.358;2023-04-24T13:34:31;8.30;85.30
64987;DHT22;67903;52.108;9.358;2023-04-24T13:37:18;8.40;85.00
64987;DHT22;67903;52.108;9.358;2023-04-24T13:40:05;8.50;81.30
64987;DHT22;67903;52.108;9.358;2023-04-24T13:42:53;8.50;83.20
64987;DHT22;67903;52.108;9.358;2023-04-24T13:45:40;8.50;85.00
64987;DHT22;67903;52.108;9.358;2023-04-24T13:48:28;8.60;84.90
64987;DHT22;67903;52.108;9.358;2023-04-24T13:51:15;8.60;82.40
64987;DHT22;67903;52.108;9.358;2023-04-24T13:54:02;8.60;81.60
64987;DHT22;67903;52.108;9.358;2023-04-24T13:56:49;8.60;80.00
64987;DHT22;67903;52.108;9.358;2023-04-24T13:59:38;8.70;80.20
64987;DHT22;67903;52.108;9.358;2023-04-24T14:02:25;8.60;80.40
64987;DHT22;67903;52.108;9.358;2023-04-24T14:05:13;8.60;81.80
64987;DHT22;67903;52.108;9.358;2023-04-24T14:08:02;8.50;82.90
64987;DHT22;67903;52.108;9.358;2023-04-24T14:10:49;8.10;87.10
64987;DHT22;67903;52.108;9.358;2023-04-24T14:13:37;7.90;89.80
64987;DHT22;67903;52.108;9.358;2023-04-24T14:16:24;7.80;92.10
64987;DHT22;67903;52.108;9.358;2023-04-24T14:19:12;7.60;92.60
64987;DHT22;67903;52.108;9.358;2023-04-24T14:21:59;7.60;92.40
64987;DHT22;67903;52.108;9.358;2023-04-24T14:24:46;7.50;92.50
64987;DHT22;67903;52.108;9.358;2023-04-24T14:27:33;7.60;92.30
64987;DHT22;67903;52.108;9.358;2023-04-24T14:30:21;7.80;93.00
64987;DHT22;67903;52.108;9.358;2023-04-24T14:33:08;7.90;92.60
64987;DHT22;67903;52.108;9.358;2023-04-24T14:35:55;8.00;92.90
64987;DHT22;67903;52.108;9.358;2023-04-24T14:38:42;8.10;91.10
64987;DHT22;67903;52.108;9.358;2023-04-24T14:41:30;8.10;89.80
64987;DHT22;67903;52.108;9.358;2023-04-24T14:44:18;8.20;88.50
64987;DHT22;67903;52.108;9.358;2023-04-24T14:47:05;8.10;88.70
64987;DHT22;67903;52.108;9.358;2023-04-24T14:49:53;8.00;90.10
64987;DHT22;67903;52.108;9.358;2023-04-24T14:52:41;8.00;90.50
64987;DHT22;67903;52.108;9.358;2023-04-24T14:55:28;8.10;91.30
64987;DHT22;67903;52.108;9.358;2023-04-24T14:58:15;8.10;89.70
64987;DHT22;67903;52.108;9.358;2023-04-24T15:01:02;8.10;89.50
64987;DHT22;67903;52.108;9.358;2023-04-24T15:03:49;8.20;87.50
64987;DHT22;67903;52.108;9.358;2023-04-24T15:06:37;8.10;89.90
64987;DHT22;67903;52.108;9.358;2023-04-24T15:09:25;8.30;87.70
64987;DHT22;67903;52.108;9.358;2023-04-24T15:12:13;8.40;87.30
64987;DHT22;67903;52.108;9.358;2023-04-24T15:15:00;8.50;85.30
64987;DHT22;67903;52.108;9.358;2023-04-24T15:17:47;8.60;85.20
64987;DHT22;67903;52.108;9.358;2023-04-24T15:20:34;8.60;86.00
64987;DHT22;67903;52.108;9.358;2023-04-24T15:23:24;8.70;84.70
64987;DHT22;67903;52.108;9.358;2023-04-24T15:26:11;8.80;83.90
64987;DHT22;67903;52.108;9.358;2023-04-24T15:28:58;8.90;82.90
64987;DHT22;67903;52.108;9.358;2023-04-24T15:31:45;9.00;82.30
64987;DHT22;67903;52.108;9.358;2023-04-24T15:34:32;9.00;82.20
64987;DHT22;67903;52.108;9.358;2023-04-24T15:37:19;9.00;81.10
64987;DHT22;67903;52.108;9.358;2023-04-24T15:40:07;9.00;81.70
64987;DHT22;67903;52.108;9.358;2023-04-24T15:42:54;8.90;81.70
64987;DHT22;67903;52.108;9.358;2023-04-24T15:45:42;8.90;81.80
64987;DHT22;67903;52.108;9.358;2023-04-24T15:48:29;8.90;81.80
64987;DHT22;67903;52.108;9.358;2023-04-24T15:51:16;8.80;82.00
64987;DHT22;67903;52.108;9.358;2023-04-24T15:54:03;8.80;83.10
64987;DHT22;67903;52.108;9.358;2023-04-24T15:56:50;8.80;82.50
64987;DHT22;67903;52.108;9.358;2023-04-24T15:59:38;8.80;81.60
64987;DHT22;67903;52.108;9.358;2023-04-24T16:02:25;8.80;82.40
64987;DHT22;67903;52.108;9.358;2023-04-24T16:05:13;8.60;82.30
64987;DHT22;67903;52.108;9.358;2023-04-24T16:08:00;8.50;83.80
64987;DHT22;67903;52.108;9.358;2023-04-24T16:10:47;8.40;84.10
64987;DHT22;67903;52.108;9.358;2023-04-24T16:13:34;8.40;85.10
64987;DHT22;67903;52.108;9.358;2023-04-24T16:16:21;8.40;84.10
64987;DHT22;67903;52.108;9.358;2023-04-24T16:19:10;8.40;83.50
64987;DHT22;67903;52.108;9.358;2023-04-24T16:21:57;8.50;83.00
64987;DHT22;67903;52.108;9.358;2023-04-24T16:24:44;8.50;82.40
64987;DHT22;67903;52.108;9.358;2023-04-24T16:27:34;8.50;82.10
64987;DHT22;67903;52.108;9.358;2023-04-24T16:30:21;8.50;82.10
64987;DHT22;67903;52.108;9.358;2023-04-24T16:33:08;8.50;81.70
64987;DHT22;67903;52.108;9.358;2023-04-24T16:35:56;8.50;81.50
64987;DHT22;67903;52.108;9.358;2023-04-24T16:38:43;8.60;81.40
64987;DHT22;67903;52.108;9.358;2023-04-24T16:41:30;8.80;81.30
64987;DHT22;67903;52.108;9.358;2023-04-24T16:44:17;8.90;81.20
64987;DHT22;67903;52.108;9.358;2023-04-24T16:47:06;8.80;80.80
64987;DHT22;67903;52.108;9.358;2023-04-24T16:49:53;8.90;80.10
64987;DHT22;67903;52.108;9.358;2023-04-24T16:52:41;8.70;79.50
64987;DHT22;67903;52.108;9.358;2023-04-24T16:55:29;8.60;80.50
64987;DHT22;67903;52.108;9.358;2023-04-24T16:58:16;8.80;79.80
64987;DHT22;67903;52.108;9.358;2023-04-24T17:01:03;8.60;79.50
64987;DHT22;67903;52.108;9.358;2023-04-24T17:03:50;8.60;79.70
64987;DHT22;67903;52.108;9.358;2023-04-24T17:06:38;8.60;78.20
64987;DHT22;67903;52.108;9.358;2023-04-24T17:09:25;8.60;78.00
64987;DHT22;67903;52.108;9.358;2023-04-24T17:12:12;8.70;78.00
64987;DHT22;67903;52.108;9.358;2023-04-24T17:14:59;8.80;77.90
64987;DHT22;67903;52.108;9.358;2023-04-24T17:17:46;8.70;78.00
64987;DHT22;67903;52.108;9.358;2023-04-24T17:20:33;8.60;78.40
64987;DHT22;67903;52.108;9.358;2023-04-24T17:23:20;8.60;78.60
64987;DHT22;67903;52.108;9.358;2023-04-24T17:26:07;8.60;77.20
64987;DHT22;67903;52.108;9.358;2023-04-24T17:28:54;8.80;78.10
64987;DHT22;67903;52.108;9.358;2023-04-24T17:31:41;8.80;77.80
64987;DHT22;67903;52.108;9.358;2023-04-24T17:34:29;8.60;77.50
64987;DHT22;67903;52.108;9.358;2023-04-24T17:37:16;8.60;77.30
64987;DHT22;67903;52.108;9.358;2023-04-24T17:40:06;8.60;78.00
64987;DHT22;67903;52.108;9.358;2023-04-24T17:42:54;8.60;77.80
64987;DHT22;67903;52.108;9.358;2023-04-24T17:45:41;8.70;76.80
64987;DHT22;67903;52.108;9.358;2023-04-24T17:48:28;8.60;77.70
64987;DHT22;67903;52.108;9.358;2023-04-24T17:51:15;8.70;77.90
64987;DHT22;67903;52.108;9.358;2023-04-24T17:54:02;8.60;79.40
64987;DHT22;67903;52.108;9.358;2023-04-24T17:56:49;8.60;81.90
64987;DHT22;67903;52.108;9.358;2023-04-24T17:59:38;8.60;81.00